Time;durP1;ratioP1;P1;durP2;ratioP2;P2;SDS_P1;SDS_P2;PMS_P1;PMS_P2;Temp;Humidity;BMP_temperature;BMP_pressure;BME280_temperature;BME280_humidity;BME280_pressure;Samples;Min_cycle;Max_cycle;Signal;HPM_P1;HPM_P2
2021/06/16 00:00:26;;;;;;;3.35;1.42;;;12.30;99.90;;;;;;5014916;28;20076;-69
2021/06/16 00:02:53;;;;;;;2.30;1.00;;;12.30;99.90;;;;;;5016075;28;20541;-68
2021/06/16 00:05:24;;;;;;;4.03;1.50;;;12.30;99.90;;;;;;5014844;28;20053;-68
2021/06/16 00:07:51;;;;;;;3.83;1.15;;;12.40;99.90;;;;;;5016217;28;21023;-66
2021/06/16 00:10:23;;;;;;;9.70;1.95;;;12.50;99.90;;;;;;5017474;28;20050;-67
2021/06/16 00:12:50;;;;;;;3.70;1.13;;;12.50;99.90;;;;;;5014446;28;20367;-66
2021/06/16 00:15:24;;;;;;;4.78;1.35;;;12.50;99.90;;;;;;5014237;28;20153;-66
2021/06/16 00:17:52;;;;;;;6.10;1.30;;;12.50;99.90;;;;;;5013542;28;20057;-68
2021/06/16 00:20:18;;;;;;;2.92;1.02;;;12.50;99.90;;;;;;5013636;28;20152;-68
2021/06/16 00:22:46;;;;;;;3.33;0.98;;;12.60;99.90;;;;;;5012609;28;20064;-66
2021/06/16 00:25:13;;;;;;;3.03;1.00;;;12.70;99.90;;;;;;5011618;28;20063;-66
2021/06/16 00:27:40;;;;;;;2.78;0.70;;;12.90;99.90;;;;;;5010641;28;20045;-67
2021/06/16 00:30:09;;;;;;;6.97;0.85;;;12.90;99.90;;;;;;5015643;28;20064;-67
2021/06/16 00:32:37;;;;;;;3.83;1.10;;;13.00;99.90;;;;;;5016364;28;20523;-67
2021/06/16 00:35:05;;;;;;;3.97;1.10;;;13.00;99.90;;;;;;5017867;28;20073;-68
2021/06/16 00:37:34;;;;;;;5.15;1.27;;;13.00;99.90;;;;;;5017283;28;20123;-68
2021/06/16 00:40:05;;;;;;;1.33;0.95;;;12.90;99.90;;;;;;5016789;28;20178;-66
2021/06/16 00:42:33;;;;;;;3.60;1.23;;;12.80;99.90;;;;;;5001628;28;20091;-66
2021/06/16 00:45:00;;;;;;;6.43;1.00;;;12.70;99.90;;;;;;5012292;28;20119;-68
2021/06/16 00:47:27;;;;;;;4.95;1.42;;;12.60;99.90;;;;;;5013951;28;20119;-67
2021/06/16 00:49:54;;;;;;;3.92;1.00;;;12.60;99.90;;;;;;5016063;28;20149;-67
2021/06/16 00:52:21;;;;;;;3.97;1.38;;;12.50;99.90;;;;;;5011519;28;20056;-66
2021/06/16 00:54:48;;;;;;;3.22;1.45;;;12.50;99.90;;;;;;5015949;28;20049;-69
2021/06/16 00:57:15;;;;;;;2.85;1.17;;;12.40;99.90;;;;;;5021040;28;20107;-66
2021/06/16 01:00:07;;;;;;;3.03;1.10;;;12.30;99.90;;;;;;5021655;28;20045;-66
2021/06/16 01:02:52;;;;;;;4.22;1.00;;;12.30;99.90;;;;;;5019525;28;20111;-67
2021/06/16 01:05:20;;;;;;;4.32;1.73;;;12.20;99.90;;;;;;5021634;28;20148;-69
2021/06/16 01:07:55;;;;;;;2.15;0.82;;;12.10;99.90;;;;;;5020523;28;20084;-68
2021/06/16 01:10:23;;;;;;;2.70;0.90;;;12.10;99.90;;;;;;5020484;28;20053;-66
2021/06/16 01:13:04;;;;;;;3.78;1.20;;;12.00;99.90;;;;;;5020711;28;20096;-69
2021/06/16 01:15:54;;;;;;;2.30;0.80;;;12.00;99.90;;;;;;5022166;28;20073;-67
2021/06/16 01:18:21;;;;;;;3.00;0.80;;;12.00;99.90;;;;;;5018561;28;20072;-67
2021/06/16 01:20:51;;;;;;;3.85;1.13;;;12.00;99.90;;;;;;5022526;28;20057;-66
2021/06/16 01:23:59;;;;;;;3.85;1.20;;;12.10;99.90;;;;;;5020465;28;20053;-65
2021/06/16 01:26:32;;;;;;;4.03;1.55;;;12.10;99.90;;;;;;5020550;28;20627;-67
2021/06/16 01:29:08;;;;;;;2.92;1.35;;;12.10;99.90;;;;;;5021010;28;20474;-66
2021/06/16 01:31:36;;;;;;;5.35;1.35;;;12.20;99.90;;;;;;5021420;28;20064;-65
2021/06/16 01:34:04;;;;;;;8.13;1.83;;;12.20;99.90;;;;;;5021013;28;20052;-68
2021/06/16 01:36:35;;;;;;;6.63;2.28;;;12.20;99.90;;;;;;5019803;28;20049;-69
2021/06/16 01:39:05;;;;;;;;;;;12.20;99.90;;;;;;5021703;28;20179;-67
2021/06/16 01:41:32;;;;;;;2.92;1.30;;;12.20;99.90;;;;;;5021311;28;20394;-66
2021/06/16 01:44:00;;;;;;;6.45;2.00;;;12.10;99.90;;;;;;5021225;28;20635;-67
2021/06/16 01:46:27;;;;;;;2.53;1.88;;;12.00;99.90;;;;;;5019749;28;20042;-69
2021/06/16 01:48:56;;;;;;;3.47;1.50;;;11.90;99.90;;;;;;5021817;28;20052;-66
2021/06/16 01:51:25;;;;;;;3.72;2.15;;;11.90;99.90;;;;;;5020706;28;20803;-68
2021/06/16 01:53:54;;;;;;;5.50;1.20;;;11.90;99.90;;;;;;5022123;28;20124;-67
2021/06/16 01:56:22;;;;;;;4.38;1.40;;;11.80;99.90;;;;;;5019127;28;20080;-68
2021/06/16 01:58:49;;;;;;;7.35;1.75;;;11.80;99.90;;;;;;5020137;28;21800;-66
2021/06/16 02:01:18;;;;;;;9.10;1.88;;;11.80;99.90;;;;;;5020537;28;20049;-68
2021/06/16 02:03:45;;;;;;;3.40;1.08;;;11.70;99.90;;;;;;5020949;28;20841;-66
2021/06/16 02:06:17;;;;;;;4.03;1.75;;;11.70;99.90;;;;;;5013948;28;20053;-67
2021/06/16 02:08:47;;;;;;;3.30;1.73;;;11.70;99.90;;;;;;5019207;28;20076;-69
2021/06/16 02:11:17;;;;;;;;;;;11.70;99.90;;;;;;5020125;28;20569;-66
2021/06/16 02:13:52;;;;;;;3.95;1.38;;;11.60;99.90;;;;;;5021079;28;20519;-66
2021/06/16 02:16:28;;;;;;;4.78;1.65;;;11.60;99.90;;;;;;5017310;28;20166;-66
2021/06/16 02:19:01;;;;;;;8.25;1.83;;;11.60;99.90;;;;;;5021614;28;20057;-66
2021/06/16 02:21:29;;;;;;;4.88;1.58;;;11.70;99.90;;;;;;5018070;28;20507;-66
2021/06/16 02:23:56;;;;;;;8.70;1.92;;;11.70;99.90;;;;;;5021286;28;20053;-68
2021/06/16 02:26:23;;;;;;;5.65;1.15;;;11.80;99.90;;;;;;5015910;28;20056;-67
2021/06/16 02:28:51;;;;;;;3.88;1.38;;;11.90;99.90;;;;;;5016669;28;20119;-66
2021/06/16 02:31:18;;;;;;;1.65;1.13;;;11.90;99.90;;;;;;5017809;28;20099;-67
2021/06/16 02:33:49;;;;;;;5.28;1.50;;;11.80;99.90;;;;;;5020687;28;20095;-65
2021/06/16 02:36:17;;;;;;;4.15;1.40;;;11.80;99.90;;;;;;5017802;28;20085;-67
2021/06/16 02:38:46;;;;;;;9.93;1.48;;;11.80;99.90;;;;;;5013579;28;20484;-68
2021/06/16 02:41:16;;;;;;;8.25;1.98;;;11.90;99.90;;;;;;5018484;28;20122;-68
2021/06/16 02:43:44;;;;;;;8.48;2.38;;;11.90;99.90;;;;;;5020883;28;20057;-66
2021/06/16 02:46:12;;;;;;;9.23;2.50;;;11.90;99.90;;;;;;5019415;28;20127;-65
2021/06/16 02:48:48;;;;;;;3.58;1.50;;;11.90;99.90;;;;;;5014763;28;20143;-68
2021/06/16 02:51:16;;;;;;;3.35;1.42;;;12.00;99.90;;;;;;5019349;28;20159;-68
2021/06/16 02:53:45;;;;;;;5.25;1.60;;;12.00;99.90;;;;;;5019706;28;20126;-66
2021/06/16 02:56:14;;;;;;;6.00;1.50;;;12.00;99.90;;;;;;5021032;28;20462;-65
2021/06/16 02:58:44;;;;;;;4.38;1.50;;;12.00;99.90;;;;;;5016604;28;20521;-68
2021/06/16 03:01:16;;;;;;;2.45;1.67;;;11.90;99.90;;;;;;5021372;28;20069;-66
2021/06/16 03:03:48;;;;;;;5.65;1.85;;;11.80;99.90;;;;;;5017094;28;20136;-66
2021/06/16 03:06:20;;;;;;;6.38;1.95;;;11.80;99.90;;;;;;5020476;28;20146;-66
2021/06/16 03:08:50;;;;;;;2.10;1.23;;;11.80;99.90;;;;;;5017239;28;20146;-68
2021/06/16 03:11:17;;;;;;;5.88;1.55;;;11.90;99.90;;;;;;5020760;28;20504;-68
2021/06/16 03:13:46;;;;;;;9.48;3.10;;;11.90;99.90;;;;;;5019057;28;20045;-68
2021/06/16 03:16:14;;;;;;;5.00;2.30;;;12.00;99.90;;;;;;5019456;28;20118;-66
2021/06/16 03:18:46;;;;;;;4.40;1.60;;;12.00;99.90;;;;;;5017580;28;20049;-66
2021/06/16 03:21:15;;;;;;;7.32;2.13;;;12.00;99.90;;;;;;5018402;28;20099;-68
2021/06/16 03:23:46;;;;;;;6.13;1.63;;;12.10;99.90;;;;;;5020563;28;20111;-66
2021/06/16 03:26:13;;;;;;;;;;;12.30;99.90;;;;;;5019079;28;20919;-67
2021/06/16 03:28:41;;;;;;;5.40;1.20;;;12.50;99.90;;;;;;5017599;28;20033;-66
2021/06/16 03:31:08;;;;;;;7.18;2.38;;;12.70;99.90;;;;;;5018956;28;20464;-67
2021/06/16 03:33:35;;;;;;;6.50;2.50;;;12.80;99.90;;;;;;5019089;28;20413;-68
2021/06/16 03:36:03;;;;;;;5.93;2.22;;;13.00;99.90;;;;;;5019241;28;20126;-65
2021/06/16 03:38:31;;;;;;;6.78;1.63;;;13.10;99.90;;;;;;5017078;28;20410;-66
2021/06/16 03:41:00;;;;;;;7.00;2.53;;;13.20;99.90;;;;;;5019823;28;20041;-67
2021/06/16 03:43:27;;;;;;;4.30;1.52;;;13.30;99.90;;;;;;5019574;28;20136;-67
2021/06/16 03:45:56;;;;;;;4.85;1.83;;;13.40;99.90;;;;;;5018479;28;20106;-66
2021/06/16 03:48:26;;;;;;;5.85;1.95;;;13.50;99.90;;;;;;5018528;28;20045;-68
2021/06/16 03:50:53;;;;;;;3.25;1.30;;;13.50;99.90;;;;;;5017791;28;20095;-67
2021/06/16 03:53:21;;;;;;;6.25;2.20;;;13.60;99.90;;;;;;5016891;28;20072;-66
2021/06/16 03:55:49;;;;;;;7.18;1.88;;;13.60;99.90;;;;;;5017102;28;20081;-66
2021/06/16 03:58:17;;;;;;;6.55;1.98;;;13.60;99.90;;;;;;5018261;28;20129;-66
2021/06/16 04:00:44;;;;;;;9.30;1.13;;;13.70;99.90;;;;;;5014558;28;20156;-69
2021/06/16 04:03:13;;;;;;;6.07;1.60;;;13.70;99.90;;;;;;5019499;28;20045;-66
2021/06/16 04:05:41;;;;;;;6.25;1.48;;;13.80;99.90;;;;;;5017339;28;20195;-67
2021/06/16 04:08:10;;;;;;;5.22;1.80;;;13.80;99.90;;;;;;5018188;28;20077;-65
2021/06/16 04:10:38;;;;;;;3.10;1.45;;;13.90;99.90;;;;;;5015182;28;20173;-66
2021/06/16 04:13:06;;;;;;;9.60;2.78;;;13.90;99.90;;;;;;5018527;28;20080;-67
2021/06/16 04:15:33;;;;;;;6.28;1.10;;;13.90;99.90;;;;;;5016981;28;20050;-68
2021/06/16 04:18:00;;;;;;;9.15;3.67;;;14.00;99.90;;;;;;5018682;28;20064;-65
2021/06/16 04:20:28;;;;;;;5.63;1.48;;;14.00;99.90;;;;;;5015953;28;20077;-65
2021/06/16 04:22:55;;;;;;;5.55;2.50;;;14.00;99.90;;;;;;5017868;28;20530;-66
2021/06/16 04:25:23;;;;;;;5.80;2.13;;;14.10;99.90;;;;;;5018801;28;20084;-67
2021/06/16 04:27:52;;;;;;;6.53;2.30;;;14.10;99.90;;;;;;5018800;28;20144;-67
2021/06/16 04:30:20;;;;;;;8.10;1.80;;;14.20;99.90;;;;;;5020016;28;20085;-66
2021/06/16 04:32:48;;;;;;;5.38;1.48;;;14.30;99.90;;;;;;5021866;28;20080;-66
2021/06/16 04:35:15;;;;;;;6.43;1.73;;;14.30;99.90;;;;;;5021206;28;20107;-65
2021/06/16 04:37:42;;;;;;;4.60;1.55;;;14.30;99.90;;;;;;5022569;28;20049;-67
2021/06/16 04:40:09;;;;;;;4.57;1.70;;;14.30;99.90;;;;;;5020770;28;20045;-66
2021/06/16 04:42:37;;;;;;;8.63;2.42;;;14.30;99.90;;;;;;5020931;28;20123;-65
2021/06/16 04:45:05;;;;;;;9.65;1.67;;;14.30;99.90;;;;;;5020693;28;21207;-67
2021/06/16 04:47:33;;;;;;;4.45;1.95;;;14.40;99.90;;;;;;5023036;28;20139;-67
2021/06/16 04:50:00;;;;;;;6.40;2.20;;;14.40;99.90;;;;;;5020963;28;20183;-66
2021/06/16 04:52:28;;;;;;;6.68;1.85;;;14.40;99.90;;;;;;5020281;28;20132;-68
2021/06/16 04:54:55;;;;;;;9.10;2.47;;;14.50;99.90;;;;;;5051148;28;20139;-66
2021/06/16 04:57:22;;;;;;;5.55;2.08;;;14.40;99.90;;;;;;5021808;28;20049;-66
2021/06/16 04:59:49;;;;;;;7.95;1.65;;;14.50;99.90;;;;;;5020329;28;20152;-66
2021/06/16 05:02:16;;;;;;;4.00;1.98;;;14.60;99.90;;;;;;5020279;28;20083;-66
2021/06/16 05:04:43;;;;;;;6.78;2.38;;;14.50;99.90;;;;;;5014521;28;20053;-67
2021/06/16 05:07:11;;;;;;;5.78;2.20;;;14.60;99.90;;;;;;5018341;28;20537;-66
2021/06/16 05:09:38;;;;;;;4.95;1.70;;;14.60;99.90;;;;;;5016191;28;20041;-66
2021/06/16 05:12:06;;;;;;;2.40;0.98;;;14.60;99.90;;;;;;5019057;28;20155;-67
2021/06/16 05:14:33;;;;;;;8.32;2.50;;;14.60;99.90;;;;;;5019213;28;20037;-69
2021/06/16 05:17:00;;;;;;;7.30;2.47;;;14.60;99.90;;;;;;5021940;28;20050;-66
2021/06/16 05:19:27;;;;;;;2.35;1.08;;;14.50;99.90;;;;;;5019790;28;20073;-66
2021/06/16 05:21:57;;;;;;;5.90;2.80;;;14.60;99.90;;;;;;5020064;28;20313;-65
2021/06/16 05:24:24;;;;;;;7.15;1.92;;;14.60;99.90;;;;;;5018141;28;20057;-68
2021/06/16 05:26:51;;;;;;;5.93;2.67;;;14.60;99.90;;;;;;5018591;28;20060;-67
2021/06/16 05:29:18;;;;;;;9.55;2.67;;;14.60;99.90;;;;;;5021644;28;20151;-67
2021/06/16 05:31:45;;;;;;;7.25;2.88;;;14.70;99.90;;;;;;5020502;28;20645;-66
2021/06/16 05:34:12;;;;;;;3.85;2.53;;;14.70;99.90;;;;;;5019657;28;20756;-67
2021/06/16 05:36:39;;;;;;;5.65;2.20;;;14.70;99.90;;;;;;5019592;28;20170;-65
2021/06/16 05:39:06;;;;;;;5.80;2.10;;;14.70;99.90;;;;;;5021478;28;20045;-65
2021/06/16 05:41:33;;;;;;;3.97;1.67;;;14.70;99.90;;;;;;5017935;28;21424;-67
2021/06/16 05:44:00;;;;;;;12.35;3.15;;;14.70;99.90;;;;;;5019672;28;20157;-67
2021/06/16 05:46:27;;;;;;;5.03;2.65;;;14.70;99.90;;;;;;5017728;28;20071;-66
2021/06/16 05:48:54;;;;;;;5.28;1.67;;;14.70;99.90;;;;;;5021011;28;20080;-66
2021/06/16 05:51:21;;;;;;;6.88;2.08;;;14.70;99.90;;;;;;5018604;28;20045;-69
2021/06/16 05:53:48;;;;;;;6.53;2.67;;;14.60;99.90;;;;;;5020064;28;20049;-67
2021/06/16 05:56:15;;;;;;;11.05;2.42;;;14.70;99.90;;;;;;5017978;28;20120;-67
2021/06/16 05:58:42;;;;;;;5.43;1.70;;;14.70;99.90;;;;;;5017562;28;20103;-67
2021/06/16 06:01:09;;;;;;;4.70;1.95;;;14.80;99.90;;;;;;5017862;28;20197;-69
2021/06/16 06:03:37;;;;;;;3.72;1.63;;;14.90;99.90;;;;;;5019442;28;20555;-67
2021/06/16 06:06:04;;;;;;;6.85;2.33;;;14.90;99.90;;;;;;5017106;28;20470;-69
2021/06/16 06:08:50;;;;;;;5.72;2.22;;;14.90;99.90;;;;;;2652090;28;10003906;-66
2021/06/16 06:11:16;;;;;;;11.88;2.45;;;14.80;99.90;;;;;;3979837;28;10001960;-67
2021/06/16 06:13:43;;;;;;;4.22;2.40;;;14.80;99.90;;;;;;5018473;28;20065;-68
2021/06/16 06:16:11;;;;;;;3.25;1.52;;;14.80;99.90;;;;;;5018224;28;20057;-69
2021/06/16 06:18:38;;;;;;;4.20;1.80;;;14.80;99.90;;;;;;5017704;28;20886;-66
2021/06/16 06:21:05;;;;;;;3.88;1.75;;;14.90;99.90;;;;;;5017340;28;20081;-67
2021/06/16 06:23:32;;;;;;;2.35;1.40;;;14.90;99.90;;;;;;5017498;28;20073;-66
2021/06/16 06:25:59;;;;;;;4.25;2.08;;;15.00;99.90;;;;;;5018777;28;20073;-66
2021/06/16 06:28:25;;;;;;;7.22;1.70;;;15.00;99.90;;;;;;5015087;28;21912;-65
2021/06/16 06:30:52;;;;;;;5.32;1.70;;;15.00;99.90;;;;;;5016286;28;21445;-67
2021/06/16 06:33:19;;;;;;;8.27;2.00;;;15.00;99.90;;;;;;5018262;28;20069;-68
2021/06/16 06:35:46;;;;;;;9.00;2.88;;;15.10;99.90;;;;;;5017294;28;20159;-67
2021/06/16 06:38:14;;;;;;;7.30;1.95;;;15.10;99.90;;;;;;5017259;28;20623;-65
2021/06/16 06:40:41;;;;;;;8.55;3.63;;;15.20;99.90;;;;;;5016297;28;20057;-66
2021/06/16 06:43:08;;;;;;;4.45;3.10;;;15.20;99.90;;;;;;5016861;28;20088;-65
2021/06/16 06:45:35;;;;;;;3.50;1.58;;;15.20;99.90;;;;;;5016654;28;20099;-66
2021/06/16 06:48:02;;;;;;;7.13;2.25;;;15.20;99.90;;;;;;5017167;28;20077;-65
2021/06/16 06:50:29;;;;;;;4.85;2.17;;;15.20;99.90;;;;;;5015587;28;20136;-67
2021/06/16 06:52:56;;;;;;;6.47;2.63;;;15.20;99.90;;;;;;5011602;28;20115;-66
2021/06/16 06:55:23;;;;;;;7.40;2.55;;;15.20;99.90;;;;;;5016537;28;20122;-66
2021/06/16 06:57:50;;;;;;;6.75;2.15;;;15.20;99.90;;;;;;5016107;28;20605;-68
2021/06/16 07:00:18;;;;;;;5.95;2.10;;;15.20;99.90;;;;;;5016146;28;20120;-69
2021/06/16 07:02:45;;;;;;;3.65;3.10;;;15.20;99.90;;;;;;5012293;28;20450;-66
2021/06/16 07:05:13;;;;;;;9.82;3.20;;;15.10;99.90;;;;;;5015759;28;20130;-69
2021/06/16 07:07:41;;;;;;;7.13;2.10;;;15.10;99.90;;;;;;5015822;28;20057;-66
2021/06/16 07:10:09;;;;;;;7.97;2.28;;;15.20;99.90;;;;;;5015916;28;20905;-66
2021/06/16 07:12:36;;;;;;;4.82;2.50;;;15.30;99.90;;;;;;5012430;28;20427;-66
2021/06/16 07:15:04;;;;;;;14.48;1.98;;;15.30;99.90;;;;;;5015903;28;20491;-66
2021/06/16 07:17:31;;;;;;;6.25;2.30;;;15.40;99.90;;;;;;5013026;28;20058;-65
2021/06/16 07:19:58;;;;;;;6.20;1.73;;;15.40;99.90;;;;;;5014982;28;20065;-67
2021/06/16 07:22:25;;;;;;;5.57;2.95;;;15.50;99.90;;;;;;5013410;28;20072;-69
2021/06/16 07:24:52;;;;;;;3.33;1.83;;;15.50;99.90;;;;;;5014114;28;20144;-67
2021/06/16 07:27:20;;;;;;;5.97;1.90;;;15.50;99.90;;;;;;5015033;28;20484;-67
2021/06/16 07:29:47;;;;;;;10.70;2.25;;;15.50;99.90;;;;;;5016720;28;20049;-67
2021/06/16 07:32:16;;;;;;;4.38;1.67;;;15.60;99.90;;;;;;5015320;28;20077;-68
2021/06/16 07:34:44;;;;;;;4.20;1.55;;;15.60;99.90;;;;;;5013794;28;20155;-69
2021/06/16 07:37:11;;;;;;;9.30;2.80;;;15.60;99.90;;;;;;5017211;28;20041;-68
2021/06/16 07:39:38;;;;;;;4.97;1.92;;;15.60;99.90;;;;;;5015507;28;20085;-67
2021/06/16 07:42:05;;;;;;;6.28;2.22;;;15.70;99.90;;;;;;5017444;28;20100;-66
2021/06/16 07:44:32;;;;;;;5.38;1.48;;;15.70;99.90;;;;;;5014810;28;20136;-66
2021/06/16 07:46:59;;;;;;;6.43;1.45;;;15.80;99.90;;;;;;5017131;28;20131;-67
2021/06/16 07:49:26;;;;;;;3.70;2.00;;;15.80;99.90;;;;;;5015641;28;21377;-65
2021/06/16 07:51:53;;;;;;;2.45;1.33;;;15.80;99.90;;;;;;5017470;28;20355;-66
2021/06/16 07:54:21;;;;;;;6.00;2.00;;;15.80;99.90;;;;;;5014906;28;20695;-65
2021/06/16 07:56:48;;;;;;;7.13;1.33;;;15.90;99.90;;;;;;5016949;28;20499;-66
2021/06/16 07:59:15;;;;;;;7.22;2.13;;;15.90;99.90;;;;;;5015897;28;20134;-65
2021/06/16 08:01:43;;;;;;;6.30;2.35;;;15.90;99.90;;;;;;5012777;28;20119;-68
2021/06/16 08:04:10;;;;;;;7.40;2.00;;;15.80;99.90;;;;;;5013395;28;20041;-66
2021/06/16 08:06:37;;;;;;;9.10;2.28;;;15.90;99.90;;;;;;5014319;28;20136;-67
2021/06/16 08:09:04;;;;;;;4.95;2.67;;;15.90;99.90;;;;;;5014656;28;20048;-66
2021/06/16 08:11:32;;;;;;;2.08;1.40;;;16.10;99.90;;;;;;5017715;28;20128;-68
2021/06/16 08:13:59;;;;;;;3.67;2.13;;;16.10;99.90;;;;;;5013522;28;20956;-67
2021/06/16 08:16:26;;;;;;;7.95;3.55;;;16.00;99.90;;;;;;5013915;28;20048;-65
2021/06/16 08:18:53;;;;;;;7.43;1.60;;;16.10;99.90;;;;;;5014245;28;20056;-66
2021/06/16 08:21:19;;;;;;;2.10;1.30;;;16.10;99.90;;;;;;5014324;28;20115;-68
2021/06/16 08:23:47;;;;;;;10.02;2.13;;;16.10;99.90;;;;;;5012890;28;20160;-66
2021/06/16 08:26:15;;;;;;;3.92;1.77;;;16.10;99.90;;;;;;5016125;28;20049;-67
2021/06/16 08:28:43;;;;;;;4.68;1.70;;;16.10;99.90;;;;;;5012667;28;20046;-68
2021/06/16 08:31:10;;;;;;;4.20;1.52;;;16.10;99.90;;;;;;5015177;28;20126;-67
2021/06/16 08:33:39;;;;;;;6.35;1.88;;;16.20;99.90;;;;;;5014245;28;20053;-67
2021/06/16 08:36:07;;;;;;;4.80;1.52;;;16.30;99.90;;;;;;5015645;28;20496;-69
2021/06/16 08:38:34;;;;;;;5.30;1.35;;;16.30;99.90;;;;;;5012612;28;20042;-65
2021/06/16 08:41:08;;;;;;;10.05;2.47;;;16.40;99.90;;;;;;5016164;28;20719;-65
2021/06/16 08:43:37;;;;;;;6.72;2.88;;;16.40;99.90;;;;;;5015723;28;20069;-66
2021/06/16 08:46:07;;;;;;;8.43;2.25;;;16.30;99.90;;;;;;5015673;28;20133;-67
2021/06/16 08:48:36;;;;;;;4.90;2.22;;;16.20;99.90;;;;;;5014795;28;20057;-66
2021/06/16 08:51:05;;;;;;;12.05;1.83;;;16.30;99.90;;;;;;5016014;28;20106;-67
2021/06/16 08:53:33;;;;;;;5.07;2.15;;;16.40;99.90;;;;;;5015450;28;20080;-67
2021/06/16 08:56:00;;;;;;;3.72;1.50;;;16.40;99.90;;;;;;5015629;28;20183;-66
2021/06/16 08:58:27;;;;;;;2.35;1.10;;;16.40;99.90;;;;;;5014213;28;20123;-67
2021/06/16 09:00:54;;;;;;;7.70;2.25;;;16.50;99.90;;;;;;5014770;28;20100;-68
2021/06/16 09:03:21;;;;;;;3.65;1.63;;;16.70;99.90;;;;;;5016317;28;20045;-66
2021/06/16 09:05:50;;;;;;;7.70;1.38;;;16.60;99.90;;;;;;5013758;28;20171;-66
2021/06/16 09:08:20;;;;;;;2.97;1.27;;;16.60;99.90;;;;;;5015600;28;20446;-68
2021/06/16 09:10:50;;;;;;;6.90;2.35;;;16.60;99.90;;;;;;5009240;28;20525;-69
2021/06/16 09:13:26;;;;;;;10.73;1.67;;;16.70;99.90;;;;;;5016756;28;20072;-69
2021/06/16 09:15:54;;;;;;;3.72;1.85;;;16.70;99.90;;;;;;5014977;28;20045;-68
2021/06/16 09:18:22;;;;;;;11.13;1.92;;;16.80;99.90;;;;;;5017269;28;20049;-65
2021/06/16 09:20:53;;;;;;;5.05;1.73;;;16.80;99.90;;;;;;5016931;28;20162;-66
2021/06/16 09:23:23;;;;;;;4.72;1.65;;;16.80;99.90;;;;;;5019041;28;20188;-68
2021/06/16 09:26:30;;;;;;;5.60;1.77;;;16.90;99.90;;;;;;5015255;28;20210;-66
2021/06/16 09:28:57;;;;;;;3.30;1.80;;;16.80;99.90;;;;;;5032485;28;20493;-67
2021/06/16 09:31:25;;;;;;;5.57;1.42;;;16.90;99.90;;;;;;5034407;28;20106;-65
2021/06/16 09:33:56;;;;;;;4.85;1.88;;;16.90;99.90;;;;;;5023101;28;20049;-68
2021/06/16 09:36:24;;;;;;;;;;;17.00;99.90;;;;;;5017424;28;20045;-66
2021/06/16 09:38:52;;;;;;;1.80;1.30;;;17.00;99.90;;;;;;5017737;28;20813;-67
2021/06/16 09:41:21;;;;;;;7.15;1.42;;;16.90;99.90;;;;;;5017400;28;20093;-67
2021/06/16 09:43:54;;;;;;;1.80;0.80;;;16.90;99.90;;;;;;5018231;28;20081;-68
2021/06/16 09:46:21;;;;;;;3.97;1.83;;;17.00;99.90;;;;;;5017653;28;20048;-68
2021/06/16 09:48:49;;;;;;;3.28;1.42;;;16.90;99.90;;;;;;5016343;28;20127;-66
2021/06/16 09:51:22;;;;;;;4.90;1.42;;;17.00;99.90;;;;;;5018935;28;20081;-65
2021/06/16 09:54:14;;;;;;;3.67;1.10;;;17.10;99.90;;;;;;5016519;28;21632;-68
2021/06/16 09:56:52;;;;;;;4.50;1.60;;;17.20;99.90;;;;;;5017025;28;20068;-69
2021/06/16 09:59:42;;;;;;;7.15;1.38;;;17.30;99.90;;;;;;5016298;28;20647;-67
2021/06/16 10:02:17;;;;;;;3.97;1.02;;;17.30;99.90;;;;;;5018058;28;20496;-66
2021/06/16 10:04:46;;;;;;;8.35;1.20;;;17.40;99.90;;;;;;5016249;28;21476;-67
2021/06/16 10:07:27;;;;;;;2.33;1.08;;;17.30;99.90;;;;;;5018015;28;20049;-67
2021/06/16 10:09:59;;;;;;;7.57;1.23;;;17.40;99.90;;;;;;5018657;28;20072;-66
2021/06/16 10:12:37;;;;;;;6.50;1.52;;;17.60;99.90;;;;;;5016850;28;20057;-68
2021/06/16 10:15:08;;;;;;;8.13;1.52;;;17.70;99.90;;;;;;5014651;28;20152;-67
2021/06/16 10:17:37;;;;;;;3.55;1.60;;;17.70;99.90;;;;;;5016072;28;20053;-67
2021/06/16 10:20:06;;;;;;;4.60;1.30;;;17.80;99.90;;;;;;5017223;28;20049;-66
2021/06/16 10:22:34;;;;;;;3.97;1.10;;;17.70;99.90;;;;;;5012969;28;20123;-66
2021/06/16 10:25:01;;;;;;;7.40;2.10;;;17.70;99.90;;;;;;5015564;28;20041;-67
2021/06/16 10:27:31;;;;;;;3.05;1.27;;;17.70;99.90;;;;;;5018572;28;20073;-66
2021/06/16 10:30:07;;;;;;;3.22;1.67;;;17.60;99.90;;;;;;5013665;28;20092;-66
2021/06/16 10:32:39;;;;;;;5.78;1.85;;;17.70;99.90;;;;;;5015947;28;20107;-68
2021/06/16 10:35:08;;;;;;;4.93;1.67;;;17.70;99.90;;;;;;5015866;28;20472;-68
2021/06/16 10:37:37;;;;;;;7.38;2.50;;;17.70;99.90;;;;;;5016141;28;20455;-67
2021/06/16 10:40:14;;;;;;;3.22;1.52;;;17.80;99.70;;;;;;5017112;28;20077;-66
2021/06/16 10:43:03;;;;;;;4.07;1.38;;;17.90;99.50;;;;;;5013802;28;20300;-66
2021/06/16 10:45:40;;;;;;;3.53;1.55;;;18.00;98.30;;;;;;5015014;28;20148;-67
2021/06/16 10:48:10;;;;;;;4.38;2.17;;;18.00;99.00;;;;;;5018016;28;20103;-66
2021/06/16 10:50:46;;;;;;;3.75;1.40;;;18.10;98.90;;;;;;5014104;28;20061;-66
2021/06/16 10:53:22;;;;;;;3.58;1.65;;;18.10;99.30;;;;;;5016917;28;20104;-66
2021/06/16 10:55:55;;;;;;;12.70;3.05;;;18.40;99.20;;;;;;5016348;28;20034;-67
2021/06/16 10:58:25;;;;;;;2.15;1.40;;;18.40;99.20;;;;;;5015573;28;20056;-65
2021/06/16 11:01:19;;;;;;;5.45;1.42;;;18.40;99.40;;;;;;5015774;28;20061;-66
2021/06/16 11:03:46;;;;;;;2.97;1.83;;;18.30;98.10;;;;;;5016021;28;20055;-65
2021/06/16 11:06:35;;;;;;;2.75;1.08;;;18.30;98.40;;;;;;5014374;28;20081;-68
2021/06/16 11:09:02;;;;;;;3.03;1.50;;;18.40;97.50;;;;;;5015697;28;20139;-66
2021/06/16 11:11:50;;;;;;;3.17;1.13;;;18.30;97.60;;;;;;5015728;28;20076;-68
2021/06/16 11:14:32;;;;;;;3.05;1.33;;;18.50;96.50;;;;;;5016175;28;20131;-66
2021/06/16 11:17:07;;;;;;;4.38;1.50;;;18.60;97.30;;;;;;5011711;28;20076;-68
2021/06/16 11:19:37;;;;;;;3.78;1.70;;;18.70;97.80;;;;;;5016365;28;20184;-67
2021/06/16 11:22:13;;;;;;;2.53;0.68;;;18.60;97.50;;;;;;5016202;28;21454;-66
2021/06/16 11:25:05;;;;;;;2.78;0.85;;;18.50;97.70;;;;;;5013218;28;20084;-66
2021/06/16 11:27:54;;;;;;;1.35;0.90;;;18.50;98.20;;;;;;5013172;28;20041;-68
2021/06/16 11:30:47;;;;;;;2.60;1.00;;;18.50;97.70;;;;;;5014065;28;20423;-67
2021/06/16 11:33:23;;;;;;;1.17;0.95;;;18.40;97.50;;;;;;5014274;28;20065;-66
2021/06/16 11:35:58;;;;;;;2.78;1.02;;;18.40;98.30;;;;;;5014623;28;20077;-69
2021/06/16 11:38:32;;;;;;;3.20;1.52;;;18.50;98.40;;;;;;5014233;28;20053;-66
2021/06/16 11:41:03;;;;;;;2.60;0.90;;;18.50;97.40;;;;;;5013821;28;20071;-66
2021/06/16 11:43:52;;;;;;;4.13;1.38;;;18.80;98.40;;;;;;5019767;28;20637;-68
2021/06/16 11:46:30;;;;;;;5.93;1.02;;;19.00;96.80;;;;;;5013355;28;20106;-67
2021/06/16 11:49:23;;;;;;;2.55;1.08;;;19.00;96.60;;;;;;5015688;28;20108;-67
2021/06/16 11:51:53;;;;;;;2.45;1.02;;;18.80;97.70;;;;;;5013011;28;20140;-66
2021/06/16 11:54:36;;;;;;;5.03;1.15;;;19.00;97.20;;;;;;5011436;28;20144;-67
2021/06/16 11:57:06;;;;;;;3.00;1.50;;;19.10;96.90;;;;;;5014790;28;21153;-66
2021/06/16 11:59:34;;;;;;;2.40;0.82;;;19.10;96.40;;;;;;5017033;28;20056;-67
2021/06/16 12:02:12;;;;;;;2.55;0.70;;;19.10;96.60;;;;;;5016041;28;20050;-65
2021/06/16 12:05:08;;;;;;;1.95;0.90;;;19.20;95.30;;;;;;5014738;28;20040;-66
2021/06/16 12:07:56;;;;;;;5.95;2.00;;;19.10;97.90;;;;;;5015405;28;20049;-66
2021/06/16 12:10:25;;;;;;;2.67;1.90;;;19.20;97.00;;;;;;5013588;28;20184;-67
2021/06/16 12:13:01;;;;;;;5.13;1.65;;;19.10;94.30;;;;;;5015865;28;20056;-68
2021/06/16 12:15:33;;;;;;;3.75;1.05;;;19.10;94.40;;;;;;5015849;28;20064;-66
2021/06/16 12:18:02;;;;;;;2.20;1.10;;;19.20;95.00;;;;;;5016143;28;20050;-65
2021/06/16 12:20:38;;;;;;;1.70;1.10;;;19.20;94.60;;;;;;5013611;28;20468;-65
2021/06/16 12:23:25;;;;;;;4.53;1.48;;;19.40;96.90;;;;;;5014343;28;20475;-65
2021/06/16 12:26:21;;;;;;;4.45;1.40;;;19.40;95.30;;;;;;5017450;28;20053;-68
2021/06/16 12:28:50;;;;;;;3.53;1.85;;;19.40;95.20;;;;;;5015219;28;20049;-65
2021/06/16 12:31:28;;;;;;;1.65;1.13;;;19.40;94.10;;;;;;5013518;28;20057;-65
2021/06/16 12:36:32;;;;;;;5.70;1.45;;;19.50;95.50;;;;;;5013572;28;20056;-66
2021/06/16 12:39:10;;;;;;;2.92;1.27;;;19.80;95.00;;;;;;5013739;28;20049;-67
2021/06/16 12:41:47;;;;;;;4.22;1.55;;;20.00;95.60;;;;;;5013852;28;20471;-68
2021/06/16 12:44:16;;;;;;;4.20;1.40;;;20.00;96.00;;;;;;5012560;28;20049;-67
2021/06/16 12:47:03;;;;;;;3.53;1.52;;;20.20;96.30;;;;;;5015378;28;20057;-66
2021/06/16 12:49:46;;;;;;;5.07;1.85;;;20.20;95.50;;;;;;5013262;28;20085;-68
2021/06/16 12:52:25;;;;;;;1.98;1.45;;;20.40;94.40;;;;;;5017761;28;20092;-68
2021/06/16 12:54:52;;;;;;;6.43;3.13;;;20.20;95.00;;;;;;5014456;28;20076;-67
2021/06/16 12:57:22;;;;;;;3.47;2.15;;;20.10;95.90;;;;;;5019426;28;20099;-66
2021/06/16 12:59:53;;;;;;;3.40;2.67;;;20.20;94.90;;;;;;5018051;28;20053;-67
2021/06/16 13:02:35;;;;;;;3.58;1.77;;;20.30;94.60;;;;;;5018458;28;20136;-66
2021/06/16 13:05:04;;;;;;;2.47;1.40;;;20.40;93.90;;;;;;5018454;28;20049;-66
2021/06/16 13:07:46;;;;;;;1.73;1.17;;;20.50;95.20;;;;;;5018591;28;20119;-67